Terminal Aerodrome Forecast
Issued by NWS Sioux Falls, SD

Home | Current Version | Previous Version | Graphics & Text | Print | Product List | Glossary On
Versions: 1 2 3 4 5 6 7 8 9 10 11 12 13 14 15 16 17 18 19
000
FTUS43 KFSD 211700
TAFHON
TAF
KHON 211734Z 2118/2218 15012KT P6SM SCT030 BKN150
     FM212000 16014KT P6SM SCT040
     FM220200 19005KT P6SM SCT200
     FM221100 34010KT P6SM SKC
     FM221400 33014KT P6SM SCT025=

USA.gov is the U.S. government's official web portal to all federal, state and local government web resources and services.